sensor_id;sensor_type;location;lat;lon;timestamp;pressure;altitude;pressure_sealevel;temperature;humidity
39243;BME280;29823;47.404;8.566;2023-04-27T00:01:46;96501.28;;;9.92;100.00
39243;BME280;29823;47.404;8.566;2023-04-27T00:04:15;96511.44;;;10.02;100.00
39243;BME280;29823;47.404;8.566;2023-04-27T00:06:43;96519.06;;;9.87;100.00
39243;BME280;29823;47.404;8.566;2023-04-27T00:09:11;96521.22;;;9.78;100.00
39243;BME280;29823;47.404;8.566;2023-04-27T00:11:39;96519.13;;;9.80;100.00
39243;BME280;29823;47.404;8.566;2023-04-27T00:14:07;96518.94;;;9.93;100.00
39243;BME280;29823;47.404;8.566;2023-04-27T00:16:35;96513.09;;;9.73;100.00
39243;BME280;29823;47.404;8.566;2023-04-27T00:19:03;96516.34;;;9.75;100.00
39243;BME280;29823;47.404;8.566;2023-04-27T00:21:32;96513.31;;;9.72;100.00
39243;BME280;29823;47.404;8.566;2023-04-27T00:24:00;96506.09;;;9.72;100.00
39243;BME280;29823;47.404;8.566;2023-04-27T00:26:28;96490.97;;;9.66;100.00
39243;BME280;29823;47.404;8.566;2023-04-27T00:28:55;96508.31;;;9.75;100.00
39243;BME280;29823;47.404;8.566;2023-04-27T00:31:23;96510.91;;;9.82;100.00
39243;BME280;29823;47.404;8.566;2023-04-27T00:33:51;96513.34;;;9.83;100.00
39243;BME280;29823;47.404;8.566;2023-04-27T00:36:19;96503.13;;;9.80;100.00
39243;BME280;29823;47.404;8.566;2023-04-27T00:38:48;96498.50;;;9.87;100.00
39243;BME280;29823;47.404;8.566;2023-04-27T00:41:16;96491.81;;;9.96;100.00
39243;BME280;29823;47.404;8.566;2023-04-27T00:43:45;96476.22;;;9.93;100.00
39243;BME280;29823;47.404;8.566;2023-04-27T00:46:13;96478.97;;;10.05;100.00
39243;BME280;29823;47.404;8.566;2023-04-27T00:48:43;96471.13;;;10.03;100.00
39243;BME280;29823;47.404;8.566;2023-04-27T00:51:11;96475.50;;;9.86;100.00
39243;BME280;29823;47.404;8.566;2023-04-27T00:53:38;96486.16;;;10.04;100.00
39243;BME280;29823;47.404;8.566;2023-04-27T00:56:08;96470.13;;;10.04;100.00
39243;BME280;29823;47.404;8.566;2023-04-27T00:58:37;96474.72;;;9.97;100.00
39243;BME280;29823;47.404;8.566;2023-04-27T01:01:05;96481.41;;;9.88;100.00
39243;BME280;29823;47.404;8.566;2023-04-27T01:03:33;96486.09;;;9.93;100.00
39243;BME280;29823;47.404;8.566;2023-04-27T01:06:01;96483.84;;;9.78;100.00
39243;BME280;29823;47.404;8.566;2023-04-27T01:08:29;96489.19;;;9.78;100.00
39243;BME280;29823;47.404;8.566;2023-04-27T01:10:56;96483.16;;;9.83;100.00
39243;BME280;29823;47.404;8.566;2023-04-27T01:13:26;96491.34;;;9.70;100.00
39243;BME280;29823;47.404;8.566;2023-04-27T01:15:53;96492.09;;;9.88;100.00
39243;BME280;29823;47.404;8.566;2023-04-27T01:18:21;96493.50;;;9.79;100.00
39243;BME280;29823;47.404;8.566;2023-04-27T01:20:49;96480.06;;;9.68;100.00
39243;BME280;29823;47.404;8.566;2023-04-27T01:23:18;96510.34;;;9.91;100.00
39243;BME280;29823;47.404;8.566;2023-04-27T01:25:46;96508.00;;;9.83;100.00
39243;BME280;29823;47.404;8.566;2023-04-27T01:28:14;96500.25;;;9.93;100.00
39243;BME280;29823;47.404;8.566;2023-04-27T01:30:42;96495.59;;;9.89;100.00
39243;BME280;29823;47.404;8.566;2023-04-27T01:33:10;96506.63;;;9.81;100.00
39243;BME280;29823;47.404;8.566;2023-04-27T01:35:38;96511.44;;;9.72;100.00
39243;BME280;29823;47.404;8.566;2023-04-27T01:38:06;96504.09;;;9.68;100.00
39243;BME280;29823;47.404;8.566;2023-04-27T01:40:35;96516.75;;;9.72;100.00
39243;BME280;29823;47.404;8.566;2023-04-27T01:43:03;96511.63;;;9.59;100.00
39243;BME280;29823;47.404;8.566;2023-04-27T01:45:31;96529.03;;;9.62;100.00
39243;BME280;29823;47.404;8.566;2023-04-27T01:47:59;96534.81;;;9.77;100.00
39243;BME280;29823;47.404;8.566;2023-04-27T01:50:27;96532.78;;;9.72;100.00
39243;BME280;29823;47.404;8.566;2023-04-27T01:52:55;96544.22;;;9.79;100.00
39243;BME280;29823;47.404;8.566;2023-04-27T01:55:22;96541.69;;;9.66;100.00
39243;BME280;29823;47.404;8.566;2023-04-27T01:57:52;96542.88;;;9.70;100.00
39243;BME280;29823;47.404;8.566;2023-04-27T02:00:20;96540.06;;;9.65;100.00
39243;BME280;29823;47.404;8.566;2023-04-27T02:02:48;96544.94;;;9.86;100.00
39243;BME280;29823;47.404;8.566;2023-04-27T02:05:19;96538.75;;;9.86;100.00
39243;BME280;29823;47.404;8.566;2023-04-27T02:07:47;96545.97;;;9.85;100.00
39243;BME280;29823;47.404;8.566;2023-04-27T02:10:15;96529.09;;;9.73;100.00
39243;BME280;29823;47.404;8.566;2023-04-27T02:12:43;96534.69;;;9.83;100.00
39243;BME280;29823;47.404;8.566;2023-04-27T02:15:12;96539.78;;;9.73;100.00
39243;BME280;29823;47.404;8.566;2023-04-27T02:17:40;96539.03;;;9.66;100.00
39243;BME280;29823;47.404;8.566;2023-04-27T02:20:10;96534.72;;;9.65;100.00
39243;BME280;29823;47.404;8.566;2023-04-27T02:22:40;96525.41;;;9.38;100.00
39243;BME280;29823;47.404;8.566;2023-04-27T02:25:09;96532.31;;;9.46;100.00
39243;BME280;29823;47.404;8.566;2023-04-27T02:27:38;96527.41;;;9.43;100.00
39243;BME280;29823;47.404;8.566;2023-04-27T02:30:08;96529.66;;;9.28;100.00
39243;BME280;29823;47.404;8.566;2023-04-27T02:32:38;96523.22;;;9.35;100.00
39243;BME280;29823;47.404;8.566;2023-04-27T02:35:07;96507.34;;;9.40;100.00
39243;BME280;29823;47.404;8.566;2023-04-27T02:37:36;96520.69;;;9.40;100.00
39243;BME280;29823;47.404;8.566;2023-04-27T02:40:05;96510.03;;;9.40;100.00
39243;BME280;29823;47.404;8.566;2023-04-27T02:42:33;96490.59;;;9.33;100.00
39243;BME280;29823;47.404;8.566;2023-04-27T02:45:05;96488.03;;;9.27;100.00
39243;BME280;29823;47.404;8.566;2023-04-27T02:47:33;96501.72;;;9.12;100.00
39243;BME280;29823;47.404;8.566;2023-04-27T02:50:03;96513.88;;;9.26;100.00
39243;BME280;29823;47.404;8.566;2023-04-27T02:52:31;96506.75;;;9.20;100.00
39243;BME280;29823;47.404;8.566;2023-04-27T02:54:59;96502.75;;;9.11;100.00
39243;BME280;29823;47.404;8.566;2023-04-27T02:57:27;96497.47;;;9.05;100.00
39243;BME280;29823;47.404;8.566;2023-04-27T02:59:54;96511.78;;;9.10;100.00
39243;BME280;29823;47.404;8.566;2023-04-27T03:02:22;96516.66;;;9.13;100.00
39243;BME280;29823;47.404;8.566;2023-04-27T03:04:53;96494.44;;;9.01;100.00
39243;BME280;29823;47.404;8.566;2023-04-27T03:07:23;96516.97;;;9.23;100.00
39243;BME280;29823;47.404;8.566;2023-04-27T03:09:50;96502.31;;;9.14;100.00
39243;BME280;29823;47.404;8.566;2023-04-27T03:12:18;96518.75;;;9.11;100.00
39243;BME280;29823;47.404;8.566;2023-04-27T03:14:46;96500.81;;;9.00;100.00
39243;BME280;29823;47.404;8.566;2023-04-27T03:17:14;96515.88;;;9.13;100.00
39243;BME280;29823;47.404;8.566;2023-04-27T03:19:41;96517.19;;;9.04;100.00
39243;BME280;29823;47.404;8.566;2023-04-27T03:22:10;96518.91;;;8.98;100.00
39243;BME280;29823;47.404;8.566;2023-04-27T03:24:39;96530.47;;;9.10;100.00
39243;BME280;29823;47.404;8.566;2023-04-27T03:27:06;96531.50;;;9.09;100.00
39243;BME280;29823;47.404;8.566;2023-04-27T03:29:34;96532.50;;;8.90;100.00
39243;BME280;29823;47.404;8.566;2023-04-27T03:32:03;96537.47;;;8.87;100.00
39243;BME280;29823;47.404;8.566;2023-04-27T03:34:30;96535.63;;;8.87;100.00
39243;BME280;29823;47.404;8.566;2023-04-27T03:36:58;96521.53;;;8.80;100.00
39243;BME280;29823;47.404;8.566;2023-04-27T03:39:26;96542.03;;;9.04;100.00
39243;BME280;29823;47.404;8.566;2023-04-27T03:41:55;96507.31;;;8.86;100.00
39243;BME280;29823;47.404;8.566;2023-04-27T03:44:24;96535.22;;;9.08;100.00
39243;BME280;29823;47.404;8.566;2023-04-27T03:46:52;96536.00;;;9.09;100.00
39243;BME280;29823;47.404;8.566;2023-04-27T03:49:20;96530.00;;;8.95;100.00
39243;BME280;29823;47.404;8.566;2023-04-27T03:51:48;96529.56;;;8.98;100.00
39243;BME280;29823;47.404;8.566;2023-04-27T03:54:16;96527.81;;;9.10;100.00
39243;BME280;29823;47.404;8.566;2023-04-27T03:56:43;96534.03;;;9.04;100.00
39243;BME280;29823;47.404;8.566;2023-04-27T03:59:13;96534.91;;;8.98;100.00
39243;BME280;29823;47.404;8.566;2023-04-27T04:01:42;96534.06;;;8.98;100.00
39243;BME280;29823;47.404;8.566;2023-04-27T04:04:09;96533.84;;;8.81;100.00
39243;BME280;29823;47.404;8.566;2023-04-27T04:06:38;96541.06;;;8.74;100.00
39243;BME280;29823;47.404;8.566;2023-04-27T04:09:05;96537.66;;;8.67;100.00
39243;BME280;29823;47.404;8.566;2023-04-27T04:11:33;96541.38;;;8.84;100.00
39243;BME280;29823;47.404;8.566;2023-04-27T04:14:01;96534.84;;;8.80;100.00
39243;BME280;29823;47.404;8.566;2023-04-27T04:16:32;96542.31;;;8.72;100.00
39243;BME280;29823;47.404;8.566;2023-04-27T04:19:00;96542.25;;;8.60;100.00
39243;BME280;29823;47.404;8.566;2023-04-27T04:21:28;96541.63;;;8.58;100.00
39243;BME280;29823;47.404;8.566;2023-04-27T04:23:57;96534.66;;;8.57;100.00
39243;BME280;29823;47.404;8.566;2023-04-27T04:26:25;96557.34;;;8.66;100.00
39243;BME280;29823;47.404;8.566;2023-04-27T04:28:53;96558.56;;;8.70;100.00
39243;BME280;29823;47.404;8.566;2023-04-27T04:31:21;96542.56;;;8.70;100.00
39243;BME280;29823;47.404;8.566;2023-04-27T04:33:52;96530.31;;;8.63;100.00
39243;BME280;29823;47.404;8.566;2023-04-27T04:36:20;96533.22;;;8.61;100.00
39243;BME280;29823;47.404;8.566;2023-04-27T04:38:48;96538.69;;;8.66;100.00
39243;BME280;29823;47.404;8.566;2023-04-27T04:41:15;96521.88;;;8.41;100.00
39243;BME280;29823;47.404;8.566;2023-04-27T04:43:44;96527.97;;;8.48;100.00
39243;BME280;29823;47.404;8.566;2023-04-27T04:46:13;96522.06;;;8.46;100.00
39243;BME280;29823;47.404;8.566;2023-04-27T04:48:42;96534.84;;;8.62;100.00
39243;BME280;29823;47.404;8.566;2023-04-27T04:51:11;96549.91;;;8.75;100.00
39243;BME280;29823;47.404;8.566;2023-04-27T04:53:39;96554.41;;;8.74;100.00
39243;BME280;29823;47.404;8.566;2023-04-27T04:56:08;96558.59;;;8.88;100.00
39243;BME280;29823;47.404;8.566;2023-04-27T04:58:36;96553.72;;;9.03;100.00
39243;BME280;29823;47.404;8.566;2023-04-27T05:01:04;96556.41;;;9.21;100.00
39243;BME280;29823;47.404;8.566;2023-04-27T05:03:32;96545.94;;;9.20;100.00
39243;BME280;29823;47.404;8.566;2023-04-27T05:06:00;96544.84;;;9.45;100.00
39243;BME280;29823;47.404;8.566;2023-04-27T05:08:29;96538.91;;;9.43;100.00
39243;BME280;29823;47.404;8.566;2023-04-27T05:10:57;96546.78;;;9.38;100.00
39243;BME280;29823;47.404;8.566;2023-04-27T05:13:25;96539.06;;;9.30;100.00
39243;BME280;29823;47.404;8.566;2023-04-27T05:15:53;96548.41;;;9.39;100.00
39243;BME280;29823;47.404;8.566;2023-04-27T05:18:21;96538.47;;;9.46;100.00
39243;BME280;29823;47.404;8.566;2023-04-27T05:20:49;96547.06;;;9.48;100.00
39243;BME280;29823;47.404;8.566;2023-04-27T05:23:17;96547.22;;;9.53;100.00
39243;BME280;29823;47.404;8.566;2023-04-27T05:25:46;96556.75;;;9.43;100.00
39243;BME280;29823;47.404;8.566;2023-04-27T05:28:14;96556.69;;;9.49;100.00
39243;BME280;29823;47.404;8.566;2023-04-27T05:30:41;96546.56;;;9.40;100.00
39243;BME280;29823;47.404;8.566;2023-04-27T05:33:09;96554.63;;;9.51;100.00
39243;BME280;29823;47.404;8.566;2023-04-27T05:35:37;96562.31;;;9.77;100.00
39243;BME280;29823;47.404;8.566;2023-04-27T05:38:05;96568.03;;;9.81;100.00
39243;BME280;29823;47.404;8.566;2023-04-27T05:40:33;96570.28;;;9.95;100.00
39243;BME280;29823;47.404;8.566;2023-04-27T05:43:02;96568.28;;;10.09;100.00
39243;BME280;29823;47.404;8.566;2023-04-27T05:45:31;96566.13;;;9.99;100.00
39243;BME280;29823;47.404;8.566;2023-04-27T05:47:59;96568.03;;;10.10;100.00
39243;BME280;29823;47.404;8.566;2023-04-27T05:50:27;96564.72;;;10.15;100.00
39243;BME280;29823;47.404;8.566;2023-04-27T05:52:55;96548.22;;;10.18;100.00
39243;BME280;29823;47.404;8.566;2023-04-27T05:55:22;96556.28;;;10.29;100.00
39243;BME280;29823;47.404;8.566;2023-04-27T05:57:50;96562.59;;;10.46;100.00
39243;BME280;29823;47.404;8.566;2023-04-27T06:00:34;96565.03;;;10.48;100.00
39243;BME280;29823;47.404;8.566;2023-04-27T06:03:02;96565.13;;;10.41;100.00
39243;BME280;29823;47.404;8.566;2023-04-27T06:05:30;96574.59;;;10.55;100.00
39243;BME280;29823;47.404;8.566;2023-04-27T06:07:59;96574.72;;;10.60;100.00
39243;BME280;29823;47.404;8.566;2023-04-27T06:10:27;96578.47;;;10.82;100.00
39243;BME280;29823;47.404;8.566;2023-04-27T06:12:55;96568.47;;;10.89;100.00
39243;BME280;29823;47.404;8.566;2023-04-27T06:15:23;96546.94;;;10.84;100.00
39243;BME280;29823;47.404;8.566;2023-04-27T06:17:52;96571.03;;;10.84;100.00
39243;BME280;29823;47.404;8.566;2023-04-27T06:20:21;96569.88;;;11.03;100.00
39243;BME280;29823;47.404;8.566;2023-04-27T06:22:48;96569.53;;;11.23;100.00
39243;BME280;29823;47.404;8.566;2023-04-27T06:25:16;96567.41;;;11.36;100.00
39243;BME280;29823;47.404;8.566;2023-04-27T06:27:44;96559.84;;;11.33;100.00
39243;BME280;29823;47.404;8.566;2023-04-27T06:30:13;96569.03;;;11.26;100.00
39243;BME280;29823;47.404;8.566;2023-04-27T06:32:41;96571.03;;;11.30;100.00
39243;BME280;29823;47.404;8.566;2023-04-27T06:35:10;96555.06;;;11.47;100.00
39243;BME280;29823;47.404;8.566;2023-04-27T06:37:38;96561.44;;;11.57;100.00
39243;BME280;29823;47.404;8.566;2023-04-27T06:40:07;96557.97;;;11.68;100.00
39243;BME280;29823;47.404;8.566;2023-04-27T06:42:35;96574.41;;;12.00;100.00
39243;BME280;29823;47.404;8.566;2023-04-27T06:45:03;96572.53;;;12.00;100.00
39243;BME280;29823;47.404;8.566;2023-04-27T06:47:32;96552.41;;;11.98;100.00
39243;BME280;29823;47.404;8.566;2023-04-27T06:50:00;96564.16;;;12.25;100.00
39243;BME280;29823;47.404;8.566;2023-04-27T06:52:31;96576.13;;;12.06;100.00
39243;BME280;29823;47.404;8.566;2023-04-27T06:54:59;96555.38;;;11.73;100.00
39243;BME280;29823;47.404;8.566;2023-04-27T06:57:27;96575.69;;;12.25;100.00
39243;BME280;29823;47.404;8.566;2023-04-27T06:59:58;96569.53;;;12.41;100.00
39243;BME280;29823;47.404;8.566;2023-04-27T07:02:25;96568.13;;;12.22;100.00
39243;BME280;29823;47.404;8.566;2023-04-27T07:04:56;96574.72;;;12.59;100.00
39243;BME280;29823;47.404;8.566;2023-04-27T07:07:24;96591.31;;;12.73;100.00
39243;BME280;29823;47.404;8.566;2023-04-27T07:09:53;96587.56;;;12.90;100.00
39243;BME280;29823;47.404;8.566;2023-04-27T07:12:21;96572.59;;;12.61;100.00
39243;BME280;29823;47.404;8.566;2023-04-27T07:14:49;96573.00;;;12.53;100.00
39243;BME280;29823;47.404;8.566;2023-04-27T07:17:17;96581.28;;;12.96;100.00
39243;BME280;29823;47.404;8.566;2023-04-27T07:19:45;96579.50;;;12.90;100.00
39243;BME280;29823;47.404;8.566;2023-04-27T07:22:13;96569.28;;;12.87;100.00
39243;BME280;29823;47.404;8.566;2023-04-27T07:24:41;96561.88;;;12.61;100.00
39243;BME280;29823;47.404;8.566;2023-04-27T07:27:11;96581.41;;;13.06;100.00
39243;BME280;29823;47.404;8.566;2023-04-27T07:29:38;96578.06;;;13.32;100.00
39243;BME280;29823;47.404;8.566;2023-04-27T07:32:07;96571.25;;;13.08;100.00
39243;BME280;29823;47.404;8.566;2023-04-27T07:34:35;96582.09;;;13.13;100.00
39243;BME280;29823;47.404;8.566;2023-04-27T07:37:18;96571.00;;;13.26;100.00
39243;BME280;29823;47.404;8.566;2023-04-27T07:39:47;96571.56;;;13.66;100.00
39243;BME280;29823;47.404;8.566;2023-04-27T07:42:17;96570.25;;;13.90;100.00
39243;BME280;29823;47.404;8.566;2023-04-27T07:44:45;96531.19;;;13.61;100.00
39243;BME280;29823;47.404;8.566;2023-04-27T07:47:12;96562.81;;;13.97;100.00
39243;BME280;29823;47.404;8.566;2023-04-27T07:49:40;96563.50;;;13.66;100.00
39243;BME280;29823;47.404;8.566;2023-04-27T07:52:11;96566.22;;;14.14;100.00
39243;BME280;29823;47.404;8.566;2023-04-27T07:54:39;96558.81;;;14.48;100.00
39243;BME280;29823;47.404;8.566;2023-04-27T07:57:08;96566.22;;;14.89;100.00
39243;BME280;29823;47.404;8.566;2023-04-27T07:59:38;96562.06;;;15.44;100.00
39243;BME280;29823;47.404;8.566;2023-04-27T08:02:06;96565.41;;;16.38;100.00
39243;BME280;29823;47.404;8.566;2023-04-27T08:04:45;96558.59;;;16.10;100.00
39243;BME280;29823;47.404;8.566;2023-04-27T08:07:14;96562.44;;;16.34;100.00
39243;BME280;29823;47.404;8.566;2023-04-27T08:09:43;96559.19;;;16.22;100.00
39243;BME280;29823;47.404;8.566;2023-04-27T08:12:11;96555.22;;;15.73;100.00
39243;BME280;29823;47.404;8.566;2023-04-27T08:14:40;96554.78;;;15.96;100.00
39243;BME280;29823;47.404;8.566;2023-04-27T08:17:08;96546.00;;;15.64;100.00
39243;BME280;29823;47.404;8.566;2023-04-27T08:19:36;96557.22;;;14.78;100.00
39243;BME280;29823;47.404;8.566;2023-04-27T08:22:04;96547.91;;;14.59;100.00
39243;BME280;29823;47.404;8.566;2023-04-27T08:24:32;96549.94;;;15.10;100.00
39243;BME280;29823;47.404;8.566;2023-04-27T08:27:00;96539.66;;;15.95;100.00
39243;BME280;29823;47.404;8.566;2023-04-27T08:29:29;96547.66;;;16.42;100.00
39243;BME280;29823;47.404;8.566;2023-04-27T08:32:02;96552.53;;;17.35;100.00
39243;BME280;29823;47.404;8.566;2023-04-27T08:34:30;96555.84;;;16.87;100.00
39243;BME280;29823;47.404;8.566;2023-04-27T08:36:58;96555.03;;;17.06;100.00
39243;BME280;29823;47.404;8.566;2023-04-27T08:39:26;96540.53;;;16.11;100.00
39243;BME280;29823;47.404;8.566;2023-04-27T08:41:54;96545.56;;;15.82;100.00
39243;BME280;29823;47.404;8.566;2023-04-27T08:44:22;96547.84;;;16.20;100.00
39243;BME280;29823;47.404;8.566;2023-04-27T08:46:50;96549.00;;;16.39;100.00
39243;BME280;29823;47.404;8.566;2023-04-27T08:49:19;96554.97;;;16.41;100.00
39243;BME280;29823;47.404;8.566;2023-04-27T08:51:47;96546.56;;;16.43;100.00
39243;BME280;29823;47.404;8.566;2023-04-27T08:54:15;96549.84;;;16.70;100.00
39243;BME280;29823;47.404;8.566;2023-04-27T08:56:44;96551.88;;;18.56;87.80
39243;BME280;29823;47.404;8.566;2023-04-27T08:59:13;96538.97;;;18.43;93.40
39243;BME280;29823;47.404;8.566;2023-04-27T09:01:43;96529.00;;;19.44;83.50
39243;BME280;29823;47.404;8.566;2023-04-27T09:04:12;96542.03;;;19.66;79.35
39243;BME280;29823;47.404;8.566;2023-04-27T09:06:43;96543.09;;;19.93;79.44
39243;BME280;29823;47.404;8.566;2023-04-27T09:09:20;96541.75;;;19.67;73.81
39243;BME280;29823;47.404;8.566;2023-04-27T09:11:49;96537.97;;;20.76;69.00
39243;BME280;29823;47.404;8.566;2023-04-27T09:14:20;96528.25;;;20.51;69.45
39243;BME280;29823;47.404;8.566;2023-04-27T09:16:53;96525.50;;;22.11;61.75
39243;BME280;29823;47.404;8.566;2023-04-27T09:19:23;96520.03;;;22.38;58.04
39243;BME280;29823;47.404;8.566;2023-04-27T09:22:03;96537.38;;;20.97;56.29
39243;BME280;29823;47.404;8.566;2023-04-27T09:24:32;96531.59;;;20.25;57.25
39243;BME280;29823;47.404;8.566;2023-04-27T09:27:00;96532.34;;;19.60;59.76
39243;BME280;29823;47.404;8.566;2023-04-27T09:29:32;96533.69;;;19.62;59.30
39243;BME280;29823;47.404;8.566;2023-04-27T09:32:01;96525.16;;;19.97;60.64
39243;BME280;29823;47.404;8.566;2023-04-27T09:34:39;96523.44;;;20.01;57.63
39243;BME280;29823;47.404;8.566;2023-04-27T09:37:09;96514.47;;;20.06;59.45
39243;BME280;29823;47.404;8.566;2023-04-27T09:39:37;96505.75;;;21.79;54.75
39243;BME280;29823;47.404;8.566;2023-04-27T09:42:05;96519.28;;;21.97;56.76
39243;BME280;29823;47.404;8.566;2023-04-27T09:44:34;96512.09;;;20.97;57.66
39243;BME280;29823;47.404;8.566;2023-04-27T09:47:01;96522.09;;;22.19;54.89
39243;BME280;29823;47.404;8.566;2023-04-27T09:49:33;96507.91;;;20.86;58.75
39243;BME280;29823;47.404;8.566;2023-04-27T09:52:01;96516.31;;;20.89;57.33
39243;BME280;29823;47.404;8.566;2023-04-27T09:54:32;96498.44;;;22.55;55.06
39243;BME280;29823;47.404;8.566;2023-04-27T09:57:14;96518.53;;;22.81;50.64
39243;BME280;29823;47.404;8.566;2023-04-27T10:00:01;96501.81;;;21.98;50.21
39243;BME280;29823;47.404;8.566;2023-04-27T10:02:41;96506.16;;;21.86;54.01
39243;BME280;29823;47.404;8.566;2023-04-27T10:05:32;96504.31;;;22.35;51.40
39243;BME280;29823;47.404;8.566;2023-04-27T10:08:04;96509.22;;;23.70;48.02
39243;BME280;29823;47.404;8.566;2023-04-27T10:10:45;96506.34;;;22.03;50.52
39243;BME280;29823;47.404;8.566;2023-04-27T10:13:20;96503.59;;;21.62;49.46
39243;BME280;29823;47.404;8.566;2023-04-27T10:15:49;96503.00;;;22.19;50.05
39243;BME280;29823;47.404;8.566;2023-04-27T10:18:25;96508.41;;;21.06;52.78
39243;BME280;29823;47.404;8.566;2023-04-27T10:20:54;96509.09;;;20.43;50.48
39243;BME280;29823;47.404;8.566;2023-04-27T10:23:23;96508.22;;;19.35;54.81
39243;BME280;29823;47.404;8.566;2023-04-27T10:25:53;96506.22;;;19.92;54.57
39243;BME280;29823;47.404;8.566;2023-04-27T10:28:23;96512.03;;;20.28;54.99
39243;BME280;29823;47.404;8.566;2023-04-27T10:30:51;96508.78;;;18.98;55.21
39243;BME280;29823;47.404;8.566;2023-04-27T10:33:21;96506.75;;;18.80;54.94
39243;BME280;29823;47.404;8.566;2023-04-27T10:35:54;96497.22;;;19.21;56.19
39243;BME280;29823;47.404;8.566;2023-04-27T10:38:27;96499.34;;;20.00;53.62
39243;BME280;29823;47.404;8.566;2023-04-27T10:40:57;96503.53;;;19.40;53.84
39243;BME280;29823;47.404;8.566;2023-04-27T10:43:27;96505.56;;;19.53;52.18
39243;BME280;29823;47.404;8.566;2023-04-27T10:46:06;96493.22;;;19.89;51.83
39243;BME280;29823;47.404;8.566;2023-04-27T10:48:36;96490.50;;;21.51;47.67
39243;BME280;29823;47.404;8.566;2023-04-27T10:51:04;96486.34;;;22.34;47.58
39243;BME280;29823;47.404;8.566;2023-04-27T10:53:33;96484.41;;;22.48;46.01
39243;BME280;29823;47.404;8.566;2023-04-27T10:56:03;96468.91;;;23.76;42.82
39243;BME280;29823;47.404;8.566;2023-04-27T10:58:32;96473.47;;;23.50;42.84
39243;BME280;29823;47.404;8.566;2023-04-27T11:01:22;96469.81;;;23.93;43.80
39243;BME280;29823;47.404;8.566;2023-04-27T11:03:54;96460.75;;;25.42;42.63
39243;BME280;29823;47.404;8.566;2023-04-27T11:06:22;96459.34;;;24.85;41.66
39243;BME280;29823;47.404;8.566;2023-04-27T11:08:50;96492.66;;;22.43;45.64
39243;BME280;29823;47.404;8.566;2023-04-27T11:11:20;96477.69;;;25.10;42.82
39243;BME280;29823;47.404;8.566;2023-04-27T11:13:48;96473.34;;;25.01;39.77
39243;BME280;29823;47.404;8.566;2023-04-27T11:16:18;96481.84;;;26.95;38.53
39243;BME280;29823;47.404;8.566;2023-04-27T11:18:46;96473.97;;;24.55;40.36
39243;BME280;29823;47.404;8.566;2023-04-27T11:21:15;96469.00;;;23.62;42.94
39243;BME280;29823;47.404;8.566;2023-04-27T11:23:44;96462.91;;;24.60;41.64
39243;BME280;29823;47.404;8.566;2023-04-27T11:26:13;96470.72;;;25.38;40.80
39243;BME280;29823;47.404;8.566;2023-04-27T11:28:44;96468.53;;;22.64;45.24
39243;BME280;29823;47.404;8.566;2023-04-27T11:31:12;96471.31;;;22.50;45.48
39243;BME280;29823;47.404;8.566;2023-04-27T11:33:47;96469.91;;;22.75;45.54
39243;BME280;29823;47.404;8.566;2023-04-27T11:36:15;96468.59;;;21.29;47.40
39243;BME280;29823;47.404;8.566;2023-04-27T11:38:43;96472.94;;;21.43;48.39
39243;BME280;29823;47.404;8.566;2023-04-27T11:41:11;96477.44;;;20.33;50.46
39243;BME280;29823;47.404;8.566;2023-04-27T11:43:40;96471.81;;;20.06;51.32
39243;BME280;29823;47.404;8.566;2023-04-27T11:46:10;96470.69;;;20.31;51.01
39243;BME280;29823;47.404;8.566;2023-04-27T11:48:38;96475.41;;;19.31;52.74
39243;BME280;29823;47.404;8.566;2023-04-27T11:51:09;96479.06;;;19.92;49.91
39243;BME280;29823;47.404;8.566;2023-04-27T11:53:38;96468.72;;;22.18;46.01
39243;BME280;29823;47.404;8.566;2023-04-27T11:56:09;96467.94;;;21.18;50.05
39243;BME280;29823;47.404;8.566;2023-04-27T11:58:38;96457.06;;;22.97;46.56
39243;BME280;29823;47.404;8.566;2023-04-27T12:01:06;96453.97;;;24.12;43.24
39243;BME280;29823;47.404;8.566;2023-04-27T12:03:35;96455.19;;;25.59;39.76
39243;BME280;29823;47.404;8.566;2023-04-27T12:06:04;96456.75;;;25.06;38.90
39243;BME280;29823;47.404;8.566;2023-04-27T12:08:52;96450.34;;;26.60;38.53
39243;BME280;29823;47.404;8.566;2023-04-27T12:11:20;96451.25;;;27.05;36.21
39243;BME280;29823;47.404;8.566;2023-04-27T12:13:47;96449.50;;;27.21;35.69
39243;BME280;29823;47.404;8.566;2023-04-27T12:16:15;96438.72;;;26.05;37.44
39243;BME280;29823;47.404;8.566;2023-04-27T12:18:44;96442.69;;;26.45;38.00
39243;BME280;29823;47.404;8.566;2023-04-27T12:21:12;96433.38;;;26.99;35.63
39243;BME280;29823;47.404;8.566;2023-04-27T12:23:41;96428.22;;;26.16;38.44
39243;BME280;29823;47.404;8.566;2023-04-27T12:26:09;96430.13;;;25.86;38.92
39243;BME280;29823;47.404;8.566;2023-04-27T12:28:40;96439.81;;;27.03;37.58
39243;BME280;29823;47.404;8.566;2023-04-27T12:31:12;96424.28;;;26.46;36.97
39243;BME280;29823;47.404;8.566;2023-04-27T12:33:40;96431.00;;;24.47;40.80
39243;BME280;29823;47.404;8.566;2023-04-27T12:36:10;96417.47;;;25.73;38.21
39243;BME280;29823;47.404;8.566;2023-04-27T12:38:38;96434.03;;;26.96;36.63
39243;BME280;29823;47.404;8.566;2023-04-27T12:41:05;96435.91;;;26.43;37.30
39243;BME280;29823;47.404;8.566;2023-04-27T12:43:33;96432.97;;;27.42;36.02
39243;BME280;29823;47.404;8.566;2023-04-27T12:46:02;96433.16;;;27.25;37.46
39243;BME280;29823;47.404;8.566;2023-04-27T12:48:30;96419.16;;;28.98;34.09
39243;BME280;29823;47.404;8.566;2023-04-27T12:50:59;96423.88;;;25.40;35.14
39243;BME280;29823;47.404;8.566;2023-04-27T12:53:28;96426.88;;;26.42;35.21
39243;BME280;29823;47.404;8.566;2023-04-27T12:55:56;96417.59;;;28.21;34.49
39243;BME280;29823;47.404;8.566;2023-04-27T12:58:26;96419.50;;;28.84;32.87
39243;BME280;29823;47.404;8.566;2023-04-27T13:00:55;96424.47;;;27.79;33.79
39243;BME280;29823;47.404;8.566;2023-04-27T13:03:24;96406.84;;;28.95;32.10
39243;BME280;29823;47.404;8.566;2023-04-27T13:05:52;96414.06;;;27.40;34.91
39243;BME280;29823;47.404;8.566;2023-04-27T13:08:21;96414.53;;;29.29;31.59